sensor_id;sensor_type;location;lat;lon;timestamp;temperature;humidity
23591;DHT22;11973;52.098;7.582;2022-08-01T00:01:07;20.30;98.70
23591;DHT22;11973;52.098;7.582;2022-08-01T00:03:33;20.30;98.70
23591;DHT22;11973;52.098;7.582;2022-08-01T00:06:03;20.20;98.70
23591;DHT22;11973;52.098;7.582;2022-08-01T00:08:29;20.20;98.80
23591;DHT22;11973;52.098;7.582;2022-08-01T00:10:55;20.20;98.80
23591;DHT22;11973;52.098;7.582;2022-08-01T00:13:21;20.20;99.20
23591;DHT22;11973;52.098;7.582;2022-08-01T00:15:50;20.20;98.90
23591;DHT22;11973;52.098;7.582;2022-08-01T00:18:17;20.20;99.00
23591;DHT22;11973;52.098;7.582;2022-08-01T00:20:43;20.20;99.00
23591;DHT22;11973;52.098;7.582;2022-08-01T00:23:08;20.20;99.10
23591;DHT22;11973;52.098;7.582;2022-08-01T00:25:40;20.10;99.10
23591;DHT22;11973;52.098;7.582;2022-08-01T00:28:06;20.00;99.10
23591;DHT22;11973;52.098;7.582;2022-08-01T00:30:34;20.10;99.10
23591;DHT22;11973;52.098;7.582;2022-08-01T00:33:01;20.10;99.20
23591;DHT22;11973;52.098;7.582;2022-08-01T00:35:27;20.10;99.20
23591;DHT22;11973;52.098;7.582;2022-08-01T00:37:52;20.10;99.60
23591;DHT22;11973;52.098;7.582;2022-08-01T00:40:18;20.10;99.40
23591;DHT22;11973;52.098;7.582;2022-08-01T00:42:44;20.10;99.40
23591;DHT22;11973;52.098;7.582;2022-08-01T00:45:13;20.10;99.50
23591;DHT22;11973;52.098;7.582;2022-08-01T00:47:39;20.00;99.40
23591;DHT22;11973;52.098;7.582;2022-08-01T00:50:05;20.00;99.90
23591;DHT22;11973;52.098;7.582;2022-08-01T00:52:32;20.00;99.60
23591;DHT22;11973;52.098;7.582;2022-08-01T00:54:58;20.00;99.70
23591;DHT22;11973;52.098;7.582;2022-08-01T00:57:25;20.00;99.70
23591;DHT22;11973;52.098;7.582;2022-08-01T00:59:51;20.00;99.70
23591;DHT22;11973;52.098;7.582;2022-08-01T01:02:18;20.00;99.90
23591;DHT22;11973;52.098;7.582;2022-08-01T01:04:44;20.00;99.70
23591;DHT22;11973;52.098;7.582;2022-08-01T01:07:19;19.90;99.70
23591;DHT22;11973;52.098;7.582;2022-08-01T01:10:03;19.90;99.70
23591;DHT22;11973;52.098;7.582;2022-08-01T01:12:47;19.90;99.80
23591;DHT22;11973;52.098;7.582;2022-08-01T01:18:02;19.80;99.90
23591;DHT22;11973;52.098;7.582;2022-08-01T01:20:31;19.80;99.90
23591;DHT22;11973;52.098;7.582;2022-08-01T01:28:57;19.80;99.90
23591;DHT22;11973;52.098;7.582;2022-08-01T01:31:26;19.80;99.90
23591;DHT22;11973;52.098;7.582;2022-08-01T01:33:57;19.70;99.90
23591;DHT22;11973;52.098;7.582;2022-08-01T01:36:26;19.70;99.90
23591;DHT22;11973;52.098;7.582;2022-08-01T01:38:53;19.70;99.90
23591;DHT22;11973;52.098;7.582;2022-08-01T01:41:21;19.70;99.90
23591;DHT22;11973;52.098;7.582;2022-08-01T01:43:48;19.70;99.90
23591;DHT22;11973;52.098;7.582;2022-08-01T01:46:17;19.70;99.90
23591;DHT22;11973;52.098;7.582;2022-08-01T01:48:45;19.70;99.90
23591;DHT22;11973;52.098;7.582;2022-08-01T01:51:13;19.70;99.90
23591;DHT22;11973;52.098;7.582;2022-08-01T01:53:40;19.70;99.90
23591;DHT22;11973;52.098;7.582;2022-08-01T01:56:06;19.70;99.90
23591;DHT22;11973;52.098;7.582;2022-08-01T01:58:34;19.70;99.90
23591;DHT22;11973;52.098;7.582;2022-08-01T02:01:03;19.70;99.90
23591;DHT22;11973;52.098;7.582;2022-08-01T02:03:30;19.70;99.90
23591;DHT22;11973;52.098;7.582;2022-08-01T02:05:56;19.70;99.90
23591;DHT22;11973;52.098;7.582;2022-08-01T02:08:23;19.70;99.90
23591;DHT22;11973;52.098;7.582;2022-08-01T02:10:52;19.70;99.90
23591;DHT22;11973;52.098;7.582;2022-08-01T02:13:38;19.70;99.90
23591;DHT22;11973;52.098;7.582;2022-08-01T02:16:07;19.70;99.90
23591;DHT22;11973;52.098;7.582;2022-08-01T02:18:34;19.70;99.90
23591;DHT22;11973;52.098;7.582;2022-08-01T02:21:04;19.70;99.90
23591;DHT22;11973;52.098;7.582;2022-08-01T02:23:32;19.70;99.90
23591;DHT22;11973;52.098;7.582;2022-08-01T02:26:00;19.60;99.90
23591;DHT22;11973;52.098;7.582;2022-08-01T02:28:33;19.60;99.90
23591;DHT22;11973;52.098;7.582;2022-08-01T02:31:12;19.60;99.90
23591;DHT22;11973;52.098;7.582;2022-08-01T02:33:50;19.60;99.90
23591;DHT22;11973;52.098;7.582;2022-08-01T02:36:18;19.60;99.90
23591;DHT22;11973;52.098;7.582;2022-08-01T02:38:46;19.60;99.90
23591;DHT22;11973;52.098;7.582;2022-08-01T02:41:18;19.60;99.90
23591;DHT22;11973;52.098;7.582;2022-08-01T02:43:48;19.60;99.90
23591;DHT22;11973;52.098;7.582;2022-08-01T02:46:21;19.60;99.90
23591;DHT22;11973;52.098;7.582;2022-08-01T02:48:50;19.60;99.90
23591;DHT22;11973;52.098;7.582;2022-08-01T02:51:18;19.60;99.90
23591;DHT22;11973;52.098;7.582;2022-08-01T02:53:47;19.50;99.90
23591;DHT22;11973;52.098;7.582;2022-08-01T02:56:14;19.50;99.90
23591;DHT22;11973;52.098;7.582;2022-08-01T02:58:41;19.50;99.90
23591;DHT22;11973;52.098;7.582;2022-08-01T03:01:09;19.50;99.90
23591;DHT22;11973;52.098;7.582;2022-08-01T03:03:37;19.50;99.90
23591;DHT22;11973;52.098;7.582;2022-08-01T03:06:04;19.50;99.90
23591;DHT22;11973;52.098;7.582;2022-08-01T03:08:30;19.50;99.90
23591;DHT22;11973;52.098;7.582;2022-08-01T03:10:58;19.50;99.90
23591;DHT22;11973;52.098;7.582;2022-08-01T03:13:25;19.40;99.90
23591;DHT22;11973;52.098;7.582;2022-08-01T03:15:53;19.40;99.90
23591;DHT22;11973;52.098;7.582;2022-08-01T03:18:23;19.40;99.90
23591;DHT22;11973;52.098;7.582;2022-08-01T03:20:51;19.40;99.90
23591;DHT22;11973;52.098;7.582;2022-08-01T03:23:18;19.40;99.90
23591;DHT22;11973;52.098;7.582;2022-08-01T03:25:47;19.30;99.90
23591;DHT22;11973;52.098;7.582;2022-08-01T03:28:16;19.40;99.90
23591;DHT22;11973;52.098;7.582;2022-08-01T03:30:43;19.30;99.90
23591;DHT22;11973;52.098;7.582;2022-08-01T03:33:10;19.40;99.90
23591;DHT22;11973;52.098;7.582;2022-08-01T03:35:39;19.30;99.90
23591;DHT22;11973;52.098;7.582;2022-08-01T03:38:07;19.30;99.90
23591;DHT22;11973;52.098;7.582;2022-08-01T03:40:40;19.30;99.90
23591;DHT22;11973;52.098;7.582;2022-08-01T03:43:20;19.20;99.90
23591;DHT22;11973;52.098;7.582;2022-08-01T03:45:55;19.30;99.90
23591;DHT22;11973;52.098;7.582;2022-08-01T03:48:29;19.20;99.90
23591;DHT22;11973;52.098;7.582;2022-08-01T03:50:58;19.20;99.90
23591;DHT22;11973;52.098;7.582;2022-08-01T03:53:28;19.20;99.90
23591;DHT22;11973;52.098;7.582;2022-08-01T03:55:55;19.20;99.90
23591;DHT22;11973;52.098;7.582;2022-08-01T03:58:24;19.20;99.90
23591;DHT22;11973;52.098;7.582;2022-08-01T04:00:51;19.20;99.90
23591;DHT22;11973;52.098;7.582;2022-08-01T04:03:17;19.20;99.90
23591;DHT22;11973;52.098;7.582;2022-08-01T04:05:44;19.20;99.90
23591;DHT22;11973;52.098;7.582;2022-08-01T04:08:10;19.20;99.90
23591;DHT22;11973;52.098;7.582;2022-08-01T04:10:37;19.20;99.90
23591;DHT22;11973;52.098;7.582;2022-08-01T04:13:03;19.20;99.90
23591;DHT22;11973;52.098;7.582;2022-08-01T05:17:35;19.40;99.90
23591;DHT22;11973;52.098;7.582;2022-08-01T05:20:01;19.40;99.90
23591;DHT22;11973;52.098;7.582;2022-08-01T05:22:27;19.50;99.90
23591;DHT22;11973;52.098;7.582;2022-08-01T05:24:52;19.50;99.90
23591;DHT22;11973;52.098;7.582;2022-08-01T05:27:18;19.50;99.90
23591;DHT22;11973;52.098;7.582;2022-08-01T05:29:44;19.50;99.90
23591;DHT22;11973;52.098;7.582;2022-08-01T05:32:10;19.50;99.90
23591;DHT22;11973;52.098;7.582;2022-08-01T05:34:36;19.60;99.90
23591;DHT22;11973;52.098;7.582;2022-08-01T05:37:02;19.60;99.90
23591;DHT22;11973;52.098;7.582;2022-08-01T05:39:28;19.70;99.90
23591;DHT22;11973;52.098;7.582;2022-08-01T05:41:53;19.70;99.90
23591;DHT22;11973;52.098;7.582;2022-08-01T05:44:19;19.80;99.90
23591;DHT22;11973;52.098;7.582;2022-08-01T05:46:45;19.70;99.90
23591;DHT22;11973;52.098;7.582;2022-08-01T05:49:11;19.80;99.90
23591;DHT22;11973;52.098;7.582;2022-08-01T05:51:37;19.80;99.90
23591;DHT22;11973;52.098;7.582;2022-08-01T05:54:03;19.80;99.90
23591;DHT22;11973;52.098;7.582;2022-08-01T05:56:29;19.80;99.90
23591;DHT22;11973;52.098;7.582;2022-08-01T05:58:54;19.90;99.90
23591;DHT22;11973;52.098;7.582;2022-08-01T06:01:20;19.90;99.90
23591;DHT22;11973;52.098;7.582;2022-08-01T06:03:46;19.90;99.90
23591;DHT22;11973;52.098;7.582;2022-08-01T06:06:12;19.90;99.90
23591;DHT22;11973;52.098;7.582;2022-08-01T06:08:39;19.90;99.90
23591;DHT22;11973;52.098;7.582;2022-08-01T06:11:05;20.00;99.90
23591;DHT22;11973;52.098;7.582;2022-08-01T06:13:32;20.00;99.90
23591;DHT22;11973;52.098;7.582;2022-08-01T06:15:58;20.00;99.90
23591;DHT22;11973;52.098;7.582;2022-08-01T06:18:24;20.10;99.90
23591;DHT22;11973;52.098;7.582;2022-08-01T06:20:50;20.20;99.90
23591;DHT22;11973;52.098;7.582;2022-08-01T06:23:15;20.30;99.90
23591;DHT22;11973;52.098;7.582;2022-08-01T06:25:42;20.30;99.90
23591;DHT22;11973;52.098;7.582;2022-08-01T06:28:08;20.30;99.90
23591;DHT22;11973;52.098;7.582;2022-08-01T06:30:34;20.30;99.90
23591;DHT22;11973;52.098;7.582;2022-08-01T06:32:59;20.40;99.90
23591;DHT22;11973;52.098;7.582;2022-08-01T06:35:26;20.30;99.90
23591;DHT22;11973;52.098;7.582;2022-08-01T06:37:52;20.40;99.90
23591;DHT22;11973;52.098;7.582;2022-08-01T06:40:18;20.40;99.90
23591;DHT22;11973;52.098;7.582;2022-08-01T06:42:44;20.30;99.90
23591;DHT22;11973;52.098;7.582;2022-08-01T06:45:12;20.30;99.90
23591;DHT22;11973;52.098;7.582;2022-08-01T06:47:38;20.30;99.90
23591;DHT22;11973;52.098;7.582;2022-08-01T06:50:06;20.30;99.90
23591;DHT22;11973;52.098;7.582;2022-08-01T06:52:32;20.20;99.90
23591;DHT22;11973;52.098;7.582;2022-08-01T06:54:58;20.20;99.90
23591;DHT22;11973;52.098;7.582;2022-08-01T06:57:25;20.10;99.90
23591;DHT22;11973;52.098;7.582;2022-08-01T06:59:51;20.10;99.90
23591;DHT22;11973;52.098;7.582;2022-08-01T07:02:17;20.00;99.90
23591;DHT22;11973;52.098;7.582;2022-08-01T07:04:43;20.00;99.90
23591;DHT22;11973;52.098;7.582;2022-08-01T07:07:08;20.10;99.90
23591;DHT22;11973;52.098;7.582;2022-08-01T07:09:34;20.00;99.90
23591;DHT22;11973;52.098;7.582;2022-08-01T07:12:00;20.00;99.90
23591;DHT22;11973;52.098;7.582;2022-08-01T07:14:26;20.00;99.90
23591;DHT22;11973;52.098;7.582;2022-08-01T07:16:51;20.00;99.90
23591;DHT22;11973;52.098;7.582;2022-08-01T07:19:17;20.10;99.90
23591;DHT22;11973;52.098;7.582;2022-08-01T07:21:43;20.00;99.90
23591;DHT22;11973;52.098;7.582;2022-08-01T07:24:11;20.00;99.90
23591;DHT22;11973;52.098;7.582;2022-08-01T07:26:39;20.00;99.90
23591;DHT22;11973;52.098;7.582;2022-08-01T07:29:05;20.00;99.90
23591;DHT22;11973;52.098;7.582;2022-08-01T07:31:31;20.00;99.90
23591;DHT22;11973;52.098;7.582;2022-08-01T07:33:56;20.00;99.90
23591;DHT22;11973;52.098;7.582;2022-08-01T07:36:22;20.00;99.90
23591;DHT22;11973;52.098;7.582;2022-08-01T07:38:48;20.00;99.90
23591;DHT22;11973;52.098;7.582;2022-08-01T07:41:14;20.00;99.90
23591;DHT22;11973;52.098;7.582;2022-08-01T07:43:40;20.00;99.90
23591;DHT22;11973;52.098;7.582;2022-08-01T07:46:06;20.00;99.90
23591;DHT22;11973;52.098;7.582;2022-08-01T07:48:32;20.00;99.90
23591;DHT22;11973;52.098;7.582;2022-08-01T07:50:58;20.00;99.90
23591;DHT22;11973;52.098;7.582;2022-08-01T07:53:24;20.00;99.90
23591;DHT22;11973;52.098;7.582;2022-08-01T07:55:50;20.10;99.90
23591;DHT22;11973;52.098;7.582;2022-08-01T07:58:16;20.10;99.90
23591;DHT22;11973;52.098;7.582;2022-08-01T08:00:42;20.20;99.90
23591;DHT22;11973;52.098;7.582;2022-08-01T08:03:08;20.30;99.90
23591;DHT22;11973;52.098;7.582;2022-08-01T08:05:34;20.40;99.90
23591;DHT22;11973;52.098;7.582;2022-08-01T08:08:06;20.40;99.90
23591;DHT22;11973;52.098;7.582;2022-08-01T08:10:32;20.50;99.90
23591;DHT22;11973;52.098;7.582;2022-08-01T08:12:58;20.60;99.90
23591;DHT22;11973;52.098;7.582;2022-08-01T08:15:24;20.60;99.90
23591;DHT22;11973;52.098;7.582;2022-08-01T08:17:49;20.60;99.90
23591;DHT22;11973;52.098;7.582;2022-08-01T08:20:15;20.70;99.90
23591;DHT22;11973;52.098;7.582;2022-08-01T08:22:41;20.70;99.90
23591;DHT22;11973;52.098;7.582;2022-08-01T08:25:08;20.70;99.90
23591;DHT22;11973;52.098;7.582;2022-08-01T08:27:35;20.70;99.90
23591;DHT22;11973;52.098;7.582;2022-08-01T08:30:00;20.80;99.90
23591;DHT22;11973;52.098;7.582;2022-08-01T08:32:26;20.90;99.90
23591;DHT22;11973;52.098;7.582;2022-08-01T08:34:52;21.00;99.90
23591;DHT22;11973;52.098;7.582;2022-08-01T08:37:17;21.20;99.90
23591;DHT22;11973;52.098;7.582;2022-08-01T08:39:43;21.30;99.90
23591;DHT22;11973;52.098;7.582;2022-08-01T08:42:12;21.40;99.90
23591;DHT22;11973;52.098;7.582;2022-08-01T08:44:40;21.50;99.90
23591;DHT22;11973;52.098;7.582;2022-08-01T08:47:07;21.60;99.90
23591;DHT22;11973;52.098;7.582;2022-08-01T08:49:36;21.60;99.90
23591;DHT22;11973;52.098;7.582;2022-08-01T08:52:03;21.60;99.90
23591;DHT22;11973;52.098;7.582;2022-08-01T08:54:30;21.60;99.90
23591;DHT22;11973;52.098;7.582;2022-08-01T08:56:56;21.60;99.90
23591;DHT22;11973;52.098;7.582;2022-08-01T08:59:23;21.60;99.90
23591;DHT22;11973;52.098;7.582;2022-08-01T09:01:52;21.60;99.90
23591;DHT22;11973;52.098;7.582;2022-08-01T09:04:18;21.60;99.90
23591;DHT22;11973;52.098;7.582;2022-08-01T09:06:46;21.70;99.90
23591;DHT22;11973;52.098;7.582;2022-08-01T09:09:12;21.70;99.90
23591;DHT22;11973;52.098;7.582;2022-08-01T09:11:38;21.70;99.90
23591;DHT22;11973;52.098;7.582;2022-08-01T09:14:15;21.70;99.90
23591;DHT22;11973;52.098;7.582;2022-08-01T09:16:59;21.80;99.90
23591;DHT22;11973;52.098;7.582;2022-08-01T09:19:25;21.90;99.90
23591;DHT22;11973;52.098;7.582;2022-08-01T09:22:02;21.90;99.90
23591;DHT22;11973;52.098;7.582;2022-08-01T09:24:30;21.90;99.90
23591;DHT22;11973;52.098;7.582;2022-08-01T09:26:57;21.90;99.90
23591;DHT22;11973;52.098;7.582;2022-08-01T09:29:26;21.80;99.90
23591;DHT22;11973;52.098;7.582;2022-08-01T09:31:53;21.70;99.90
23591;DHT22;11973;52.098;7.582;2022-08-01T09:34:27;21.70;99.90
23591;DHT22;11973;52.098;7.582;2022-08-01T09:36:55;21.60;99.90
23591;DHT22;11973;52.098;7.582;2022-08-01T09:39:30;21.60;99.90
23591;DHT22;11973;52.098;7.582;2022-08-01T09:41:59;21.60;99.90
23591;DHT22;11973;52.098;7.582;2022-08-01T09:44:43;21.60;99.90
23591;DHT22;11973;52.098;7.582;2022-08-01T09:47:11;21.60;99.90
23591;DHT22;11973;52.098;7.582;2022-08-01T09:49:39;21.70;99.90
23591;DHT22;11973;52.098;7.582;2022-08-01T09:54:40;21.90;99.90
23591;DHT22;11973;52.098;7.582;2022-08-01T09:57:14;22.00;99.90
23591;DHT22;11973;52.098;7.582;2022-08-01T09:59:42;22.10;99.90
23591;DHT22;11973;52.098;7.582;2022-08-01T10:02:10;22.20;99.90
23591;DHT22;11973;52.098;7.582;2022-08-01T10:04:47;22.30;99.90
23591;DHT22;11973;52.098;7.582;2022-08-01T10:07:13;22.30;99.90
23591;DHT22;11973;52.098;7.582;2022-08-01T10:09:42;22.30;99.90
23591;DHT22;11973;52.098;7.582;2022-08-01T10:12:10;22.40;99.90
23591;DHT22;11973;52.098;7.582;2022-08-01T10:14:37;22.40;99.90
23591;DHT22;11973;52.098;7.582;2022-08-01T10:17:07;22.50;99.90
23591;DHT22;11973;52.098;7.582;2022-08-01T10:19:35;22.30;99.90
23591;DHT22;11973;52.098;7.582;2022-08-01T10:22:01;22.60;99.90
23591;DHT22;11973;52.098;7.582;2022-08-01T10:24:29;22.70;99.90
23591;DHT22;11973;52.098;7.582;2022-08-01T10:27:03;22.90;99.90
23591;DHT22;11973;52.098;7.582;2022-08-01T10:29:35;23.00;99.90
23591;DHT22;11973;52.098;7.582;2022-08-01T10:32:05;23.20;99.90
23591;DHT22;11973;52.098;7.582;2022-08-01T10:34:32;23.30;99.90
23591;DHT22;11973;52.098;7.582;2022-08-01T10:36:59;23.40;99.90
23591;DHT22;11973;52.098;7.582;2022-08-01T10:39:26;23.50;99.90
23591;DHT22;11973;52.098;7.582;2022-08-01T10:41:55;23.70;99.90
23591;DHT22;11973;52.098;7.582;2022-08-01T10:44:26;23.70;99.90
23591;DHT22;11973;52.098;7.582;2022-08-01T10:47:17;23.80;99.90
23591;DHT22;11973;52.098;7.582;2022-08-01T10:50:13;23.80;99.90
23591;DHT22;11973;52.098;7.582;2022-08-01T10:52:39;23.70;99.90
23591;DHT22;11973;52.098;7.582;2022-08-01T10:55:08;23.60;99.90
23591;DHT22;11973;52.098;7.582;2022-08-01T10:57:43;23.60;99.90
23591;DHT22;11973;52.098;7.582;2022-08-01T11:00:10;23.50;99.90
23591;DHT22;11973;52.098;7.582;2022-08-01T11:03:01;23.50;99.90
23591;DHT22;11973;52.098;7.582;2022-08-01T11:05:31;23.40;99.90
23591;DHT22;11973;52.098;7.582;2022-08-01T11:08:01;23.30;99.90
23591;DHT22;11973;52.098;7.582;2022-08-01T11:10:36;23.30;99.90
23591;DHT22;11973;52.098;7.582;2022-08-01T11:13:02;23.20;99.90
23591;DHT22;11973;52.098;7.582;2022-08-01T11:15:31;23.20;99.90
23591;DHT22;11973;52.098;7.582;2022-08-01T11:17:59;23.20;99.90
23591;DHT22;11973;52.098;7.582;2022-08-01T11:20:27;23.10;99.90
23591;DHT22;11973;52.098;7.582;2022-08-01T11:30:44;22.90;99.90
23591;DHT22;11973;52.098;7.582;2022-08-01T11:33:11;22.90;99.90
23591;DHT22;11973;52.098;7.582;2022-08-01T11:35:37;22.90;99.90
23591;DHT22;11973;52.098;7.582;2022-08-01T11:38:24;23.00;99.90
23591;DHT22;11973;52.098;7.582;2022-08-01T11:44:02;23.40;99.90
23591;DHT22;11973;52.098;7.582;2022-08-01T11:52:11;24.10;99.90
23591;DHT22;11973;52.098;7.582;2022-08-01T11:54:48;24.20;99.90
23591;DHT22;11973;52.098;7.582;2022-08-01T11:57:18;24.50;99.90
23591;DHT22;11973;52.098;7.582;2022-08-01T11:59:47;24.60;99.90
23591;DHT22;11973;52.098;7.582;2022-08-01T12:02:27;24.70;99.90
23591;DHT22;11973;52.098;7.582;2022-08-01T12:05:13;24.80;99.90
23591;DHT22;11973;52.098;7.582;2022-08-01T12:07:40;24.90;99.90
23591;DHT22;11973;52.098;7.582;2022-08-01T12:10:13;24.90;99.90
23591;DHT22;11973;52.098;7.582;2022-08-01T12:12:48;24.90;99.90
23591;DHT22;11973;52.098;7.582;2022-08-01T12:15:14;25.00;99.90
23591;DHT22;11973;52.098;7.582;2022-08-01T12:20:11;25.10;99.90
23591;DHT22;11973;52.098;7.582;2022-08-01T12:22:37;25.30;99.90
23591;DHT22;11973;52.098;7.582;2022-08-01T12:25:14;25.50;99.90
23591;DHT22;11973;52.098;7.582;2022-08-01T12:27:42;25.60;99.90
23591;DHT22;11973;52.098;7.582;2022-08-01T12:30:18;25.80;99.90
23591;DHT22;11973;52.098;7.582;2022-08-01T12:32:48;25.90;99.90
23591;DHT22;11973;52.098;7.582;2022-08-01T12:35:22;25.90;99.90
23591;DHT22;11973;52.098;7.582;2022-08-01T12:37:53;25.90;99.90
23591;DHT22;11973;52.098;7.582;2022-08-01T12:40:20;26.00;99.90
23591;DHT22;11973;52.098;7.582;2022-08-01T12:42:53;26.10;99.90
23591;DHT22;11973;52.098;7.582;2022-08-01T12:45:23;26.20;99.90
23591;DHT22;11973;52.098;7.582;2022-08-01T12:47:49;26.20;99.90
23591;DHT22;11973;52.098;7.582;2022-08-01T12:50:19;26.30;99.90
23591;DHT22;11973;52.098;7.582;2022-08-01T12:52:46;26.30;99.90
23591;DHT22;11973;52.098;7.582;2022-08-01T12:55:14;26.40;99.90
23591;DHT22;11973;52.098;7.582;2022-08-01T12:57:44;26.50;99.90
23591;DHT22;11973;52.098;7.582;2022-08-01T13:02:39;26.60;99.90
23591;DHT22;11973;52.098;7.582;2022-08-01T13:05:06;26.70;99.90
23591;DHT22;11973;52.098;7.582;2022-08-01T13:07:49;26.80;99.90
23591;DHT22;11973;52.098;7.582;2022-08-01T13:10:27;26.80;99.90
23591;DHT22;11973;52.098;7.582;2022-08-01T13:12:56;26.70;99.90
23591;DHT22;11973;52.098;7.582;2022-08-01T13:15:28;26.70;99.90
23591;DHT22;11973;52.098;7.582;2022-08-01T13:17:57;26.60;99.90
23591;DHT22;11973;52.098;7.582;2022-08-01T13:20:25;26.60;99.90
23591;DHT22;11973;52.098;7.582;2022-08-01T13:22:51;26.60;99.90
23591;DHT22;11973;52.098;7.582;2022-08-01T13:25:18;26.50;99.90
23591;DHT22;11973;52.098;7.582;2022-08-01T13:27:44;26.50;99.90
23591;DHT22;11973;52.098;7.582;2022-08-01T13:30:14;26.50;99.90
23591;DHT22;11973;52.098;7.582;2022-08-01T13:32:40;26.60;99.90
23591;DHT22;11973;52.098;7.582;2022-08-01T13:35:12;26.60;99.90
23591;DHT22;11973;52.098;7.582;2022-08-01T13:37:39;26.80;99.90
23591;DHT22;11973;52.098;7.582;2022-08-01T13:40:07;27.00;99.90
23591;DHT22;11973;52.098;7.582;2022-08-01T13:42:33;27.10;99.50
23591;DHT22;11973;52.098;7.582;2022-08-01T13:44:58;27.20;99.40
23591;DHT22;11973;52.098;7.582;2022-08-01T13:47:24;27.40;99.20
23591;DHT22;11973;52.098;7.582;2022-08-01T13:49:50;27.50;99.10
23591;DHT22;11973;52.098;7.582;2022-08-01T13:52:16;27.70;98.90
23591;DHT22;11973;52.098;7.582;2022-08-01T13:54:41;27.80;98.70
23591;DHT22;11973;52.098;7.582;2022-08-01T13:57:07;27.90;98.40
23591;DHT22;11973;52.098;7.582;2022-08-01T13:59:34;27.90;98.40
23591;DHT22;11973;52.098;7.582;2022-08-01T14:02:00;27.80;98.30
23591;DHT22;11973;52.098;7.582;2022-08-01T14:04:26;27.80;98.10
23591;DHT22;11973;52.098;7.582;2022-08-01T14:06:52;27.70;98.10
23591;DHT22;11973;52.098;7.582;2022-08-01T14:09:17;27.60;97.90
23591;DHT22;11973;52.098;7.582;2022-08-01T14:11:45;27.70;97.80
23591;DHT22;11973;52.098;7.582;2022-08-01T14:14:10;27.80;97.90
23591;DHT22;11973;52.098;7.582;2022-08-01T14:16:36;28.10;98.20
23591;DHT22;11973;52.098;7.582;2022-08-01T14:19:03;28.40;98.10
23591;DHT22;11973;52.098;7.582;2022-08-01T14:21:30;28.70;98.30
23591;DHT22;11973;52.098;7.582;2022-08-01T14:23:56;29.00;97.90
23591;DHT22;11973;52.098;7.582;2022-08-01T14:26:22;29.10;96.80
23591;DHT22;11973;52.098;7.582;2022-08-01T14:28:48;29.20;96.90
23591;DHT22;11973;52.098;7.582;2022-08-01T14:31:13;29.50;97.20
23591;DHT22;11973;52.098;7.582;2022-08-01T14:33:39;29.80;96.70
23591;DHT22;11973;52.098;7.582;2022-08-01T14:36:05;30.10;96.10
23591;DHT22;11973;52.098;7.582;2022-08-01T14:38:31;30.20;95.40
23591;DHT22;11973;52.098;7.582;2022-08-01T14:40:57;30.20;94.90
23591;DHT22;11973;52.098;7.582;2022-08-01T14:43:23;30.10;94.50
23591;DHT22;11973;52.098;7.582;2022-08-01T14:45:49;30.10;94.30
23591;DHT22;11973;52.098;7.582;2022-08-01T14:48:17;30.40;94.50
23591;DHT22;11973;52.098;7.582;2022-08-01T14:50:43;30.90;94.80
23591;DHT22;11973;52.098;7.582;2022-08-01T14:53:09;31.40;94.70
23591;DHT22;11973;52.098;7.582;2022-08-01T14:55:34;32.00;94.10
23591;DHT22;11973;52.098;7.582;2022-08-01T14:58:00;32.50;93.50
23591;DHT22;11973;52.098;7.582;2022-08-01T15:00:26;33.00;92.80
23591;DHT22;11973;52.098;7.582;2022-08-01T15:02:51;33.30;91.70
23591;DHT22;11973;52.098;7.582;2022-08-01T15:05:17;33.40;91.20
23591;DHT22;11973;52.098;7.582;2022-08-01T15:07:43;33.70;91.10
23591;DHT22;11973;52.098;7.582;2022-08-01T15:10:09;34.20;91.00
23591;DHT22;11973;52.098;7.582;2022-08-01T15:12:35;34.70;90.40
23591;DHT22;11973;52.098;7.582;2022-08-01T15:15:01;35.10;89.40
23591;DHT22;11973;52.098;7.582;2022-08-01T15:17:28;35.70;88.00
23591;DHT22;11973;52.098;7.582;2022-08-01T15:19:57;36.10;85.90
23591;DHT22;11973;52.098;7.582;2022-08-01T15:22:24;36.60;84.60
23591;DHT22;11973;52.098;7.582;2022-08-01T15:24:51;37.10;84.10
23591;DHT22;11973;52.098;7.582;2022-08-01T15:27:18;37.40;80.20
23591;DHT22;11973;52.098;7.582;2022-08-01T15:29:44;37.40;78.10
23591;DHT22;11973;52.098;7.582;2022-08-01T15:32:10;37.10;77.70
23591;DHT22;11973;52.098;7.582;2022-08-01T15:34:37;36.90;76.80
23591;DHT22;11973;52.098;7.582;2022-08-01T15:37:05;36.30;76.80
23591;DHT22;11973;52.098;7.582;2022-08-01T15:39:32;35.60;76.00
23591;DHT22;11973;52.098;7.582;2022-08-01T15:42:00;35.10;77.00
23591;DHT22;11973;52.098;7.582;2022-08-01T15:44:26;34.70;76.00
23591;DHT22;11973;52.098;7.582;2022-08-01T15:46:52;34.20;75.70
23591;DHT22;11973;52.098;7.582;2022-08-01T15:49:18;33.70;73.60
23591;DHT22;11973;52.098;7.582;2022-08-01T15:51:44;33.10;74.00
23591;DHT22;11973;52.098;7.582;2022-08-01T15:54:11;32.70;74.90
23591;DHT22;11973;52.098;7.582;2022-08-01T15:56:37;32.80;73.70
23591;DHT22;11973;52.098;7.582;2022-08-01T15:59:03;32.90;72.60
23591;DHT22;11973;52.098;7.582;2022-08-01T16:01:29;33.30;72.80
23591;DHT22;11973;52.098;7.582;2022-08-01T16:03:56;34.00;72.50
23591;DHT22;11973;52.098;7.582;2022-08-01T16:06:23;34.70;71.80
23591;DHT22;11973;52.098;7.582;2022-08-01T16:08:49;35.40;70.90
23591;DHT22;11973;52.098;7.582;2022-08-01T16:11:15;36.00;70.00
23591;DHT22;11973;52.098;7.582;2022-08-01T16:13:41;36.60;68.80
23591;DHT22;11973;52.098;7.582;2022-08-01T16:16:07;37.10;67.50
23591;DHT22;11973;52.098;7.582;2022-08-01T16:18:33;37.50;66.40
23591;DHT22;11973;52.098;7.582;2022-08-01T16:20:59;37.50;65.80
23591;DHT22;11973;52.098;7.582;2022-08-01T16:23:26;37.50;65.20
23591;DHT22;11973;52.098;7.582;2022-08-01T16:25:52;37.50;64.50
23591;DHT22;11973;52.098;7.582;2022-08-01T16:28:18;37.50;64.50
23591;DHT22;11973;52.098;7.582;2022-08-01T16:30:44;37.40;63.90
23591;DHT22;11973;52.098;7.582;2022-08-01T16:33:09;37.10;63.60
23591;DHT22;11973;52.098;7.582;2022-08-01T16:35:36;36.80;63.40
23591;DHT22;11973;52.098;7.582;2022-08-01T16:38:05;36.50;63.10
23591;DHT22;11973;52.098;7.582;2022-08-01T16:40:32;36.20;63.30
23591;DHT22;11973;52.098;7.582;2022-08-01T16:42:58;35.70;64.40
23591;DHT22;11973;52.098;7.582;2022-08-01T16:45:25;34.90;64.90
23591;DHT22;11973;52.098;7.582;2022-08-01T16:47:50;34.20;64.50
23591;DHT22;11973;52.098;7.582;2022-08-01T16:50:16;33.40;64.20
23591;DHT22;11973;52.098;7.582;2022-08-01T16:52:42;32.70;64.50
23591;DHT22;11973;52.098;7.582;2022-08-01T16:55:08;32.10;64.90
23591;DHT22;11973;52.098;7.582;2022-08-01T16:57:34;31.60;65.70
23591;DHT22;11973;52.098;7.582;2022-08-01T17:02:30;30.50;66.60
23591;DHT22;11973;52.098;7.582;2022-08-01T17:04:55;30.20;67.30
23591;DHT22;11973;52.098;7.582;2022-08-01T17:07:21;29.80;67.70
23591;DHT22;11973;52.098;7.582;2022-08-01T17:09:47;29.50;67.90
23591;DHT22;11973;52.098;7.582;2022-08-01T17:12:12;29.10;67.90